Time;durP1;ratioP1;P1;durP2;ratioP2;P2;SDS_P1;SDS_P2;PMS_P1;PMS_P2;Temp;Humidity;BMP_temperature;BMP_pressure;BME280_temperature;BME280_humidity;BME280_pressure;Samples;Min_cycle;Max_cycle;Signal;HPM_P1;HPM_P2
2024/01/22 00:01:41;;;;;;;2.00;1.90;;;;;;;-5.80;100.00;-23650.38;5032276;28;20201;-67
2024/01/22 00:04:07;;;;;;;3.40;3.10;;;;;;;-5.85;100.00;-23648.81;5032547;28;20262;-66
2024/01/22 00:06:36;;;;;;;1.83;1.73;;;;;;;-6.06;100.00;-23642.91;5032133;28;20736;-66
2024/01/22 00:09:02;;;;;;;1.77;1.67;;;;;;;-5.90;100.00;-23645.69;5032090;28;20671;-67
2024/01/22 00:11:28;;;;;;;3.03;2.83;;;;;;;-5.96;100.00;-23645.78;5032598;28;20170;-67
2024/01/22 00:13:54;;;;;;;4.50;3.10;;;;;;;-5.92;100.00;-23646.94;5032765;28;20233;-68
2024/01/22 00:16:19;;;;;;;1.80;1.70;;;;;;;-6.08;100.00;-23642.16;5032021;28;20174;-67
2024/01/22 00:18:46;;;;;;;1.80;1.70;;;;;;;-6.12;100.00;-23641.16;5032734;28;20159;-67
2024/01/22 00:21:12;;;;;;;2.30;2.20;;;;;;;-5.96;100.00;-23645.63;5032373;28;20203;-70
2024/01/22 00:23:37;;;;;;;2.63;2.43;;;;;;;-6.11;100.00;-23641.31;5032636;28;20596;-64
2024/01/22 00:26:02;;;;;;;2.13;2.03;;;;;;;-5.77;100.00;-23649.28;5032395;28;20176;-64
2024/01/22 00:28:28;;;;;;;2.00;1.90;;;;;;;-5.80;100.00;-23648.44;5032292;28;20222;-68
2024/01/22 00:30:53;;;;;;;2.20;2.10;;;;;;;-6.22;100.00;-23636.47;5031818;28;20575;-63
2024/01/22 00:33:18;;;;;;;5.53;2.93;;;;;;;-6.12;100.00;-23639.19;5032394;28;20233;-64
2024/01/22 00:35:44;;;;;;;2.77;2.57;;;;;;;-6.23;100.00;-23636.03;5032079;28;20175;-69
2024/01/22 00:38:10;;;;;;;2.37;2.03;;;;;;;-5.89;100.00;-23645.97;5032085;28;20270;-66
2024/01/22 00:40:35;;;;;;;1.67;1.57;;;;;;;-5.77;100.00;-23649.28;5031934;28;20262;-65
2024/01/22 00:43:01;;;;;;;2.50;2.37;;;;;;;-5.81;100.00;-23648.28;5034772;28;20259;-65
2024/01/22 00:45:26;;;;;;;1.73;1.63;;;;;;;-6.05;100.00;-23641.22;5031896;28;20175;-67
2024/01/22 00:47:51;;;;;;;2.10;2.00;;;;;;;-6.19;100.00;-23637.19;5032133;28;20262;-68
2024/01/22 00:50:17;;;;;;;1.80;1.70;;;;;;;-6.23;100.00;-23326.16;5031984;28;20614;-68
2024/01/22 00:52:42;;;;;;;2.87;2.67;;;;;;;-6.05;100.00;-23331.13;5031820;28;20611;-69
2024/01/22 00:55:08;;;;;;;3.57;3.27;;;;;;;-6.04;100.00;-23021.41;5031963;28;20187;-67
2024/01/22 00:57:33;;;;;;;2.00;1.90;;;;;;;-6.21;100.00;-23016.69;5030310;28;20180;-66
2024/01/22 00:59:59;;;;;;;1.53;1.43;;;;;;;-6.09;100.00;-22709.72;5031797;28;20684;-66
2024/01/22 01:02:25;;;;;;;2.07;1.97;;;;;;;-6.22;100.00;-23016.25;5031652;28;20199;-66
2024/01/22 01:04:50;;;;;;;2.70;2.30;;;;;;;-6.00;100.00;-22712.31;5032003;28;20677;-66
2024/01/22 01:07:16;;;;;;;1.70;1.60;;;;;;;-6.02;100.00;-22091.22;5032095;28;20269;-64
2024/01/22 01:09:41;;;;;;;2.23;2.13;;;;;;;-6.54;100.00;-22387.63;5031628;28;20215;-64
2024/01/22 01:12:06;;;;;;;4.50;2.70;;;;;;;-6.28;100.00;-22394.75;5031586;28;20173;-67
2024/01/22 01:14:32;;;;;;;1.67;1.57;;;;;;;-6.50;100.00;-21768.81;5031296;28;20171;-65
2024/01/22 01:16:58;;;;;;;1.97;1.77;;;;;;;-6.35;100.00;-20842.09;5031214;28;20184;-68
2024/01/22 01:19:24;;;;;;;1.83;1.73;;;;;;;-6.74;100.00;-21452.84;5031339;28;20717;-68
2024/01/22 01:21:49;;;;;;;1.80;1.70;;;;;;;-6.48;100.00;-21769.22;5031249;28;20211;-65
2024/01/22 01:24:15;;;;;;;1.87;1.77;;;;;;;-6.64;100.00;-22075.16;5031296;28;20596;-65
2024/01/22 01:26:41;;;;;;;1.70;1.60;;;;;;;-6.65;100.00;-22384.81;5031563;28;20202;-65
2024/01/22 01:29:07;;;;;;;2.73;2.53;;;;;;;-7.04;100.00;-22374.38;5030944;28;20256;-69
2024/01/22 01:31:32;;;;;;;1.77;1.67;;;;;;;-7.00;100.00;-22375.44;5031175;28;20262;-67
2024/01/22 01:33:58;;;;;;;2.17;2.07;;;;;;;-6.95;100.00;-22686.66;5031190;28;20726;-67
2024/01/22 01:36:23;;;;;;;1.87;1.77;;;;;;;-6.57;100.00;-22386.97;5031181;28;20175;-65
2024/01/22 01:38:48;;;;;;;2.00;1.83;;;;;;;-6.56;100.00;-22387.09;5030037;28;20557;-65
2024/01/22 01:41:14;;;;;;;2.50;2.33;;;;;;;-6.63;100.00;-22385.34;5030900;28;20192;-69
2024/01/22 01:43:40;;;;;;;1.50;1.40;;;;;;;-6.67;100.00;-22384.16;5030455;28;20195;-68
2024/01/22 01:46:06;;;;;;;1.50;1.40;;;;;;;-7.10;100.00;-22372.88;5031065;28;20184;-66
2024/01/22 01:48:32;;;;;;;1.87;1.77;;;;;;;-7.13;100.00;-22372.09;5030524;28;20192;-66
2024/01/22 01:50:58;;;;;;;4.30;3.37;;;;;;;-6.64;100.00;-22694.97;5033624;28;20175;-64
2024/01/22 01:53:25;;;;;;;1.80;1.70;;;;;;;-6.89;100.00;-22378.38;5030739;28;20624;-66
2024/01/22 01:55:50;;;;;;;1.70;1.60;;;;;;;-6.94;100.00;-22377.03;5030793;28;20176;-66
2024/01/22 01:58:18;;;;;;;2.57;1.83;;;;;;;-6.94;100.00;-22686.91;5030593;28;20275;-67
2024/01/22 02:00:48;;;;;;;3.53;3.10;;;;;;;-6.58;100.00;-22696.50;5029942;28;20168;-65
2024/01/22 02:03:14;;;;;;;2.27;2.17;;;;;;;-6.89;100.00;-22688.16;5030681;28;20171;-66
2024/01/22 02:05:39;;;;;;;2.77;2.57;;;;;;;-6.87;100.00;-22688.69;5030773;28;20179;-66
2024/01/22 02:08:06;;;;;;;1.80;1.70;;;;;;;-6.55;100.00;-22387.50;5030385;28;20182;-67
2024/01/22 02:10:31;;;;;;;2.37;2.17;;;;;;;-6.57;100.00;-22386.97;5030579;28;20584;-65
2024/01/22 02:12:57;;;;;;;1.77;1.67;;;;;;;-6.57;100.00;-22696.91;5030352;28;20259;-63
2024/01/22 02:15:22;;;;;;;1.93;1.83;;;;;;;-6.77;100.00;-22691.44;5030619;28;20172;-66
2024/01/22 02:17:47;;;;;;;2.50;2.30;;;;;;;-6.47;100.00;-22389.66;5030680;28;20175;-64
2024/01/22 02:20:13;;;;;;;2.33;2.13;;;;;;;-6.66;100.00;-22384.56;5030732;28;20175;-66
2024/01/22 02:22:39;;;;;;;1.80;1.70;;;;;;;-6.84;100.00;-22689.50;5030175;28;20267;-68
2024/01/22 02:25:05;;;;;;;1.90;1.80;;;;;;;-6.76;100.00;-22691.72;5030260;28;20181;-67
2024/01/22 02:27:31;;;;;;;2.57;2.37;;;;;;;-6.37;100.00;-22702.34;5030261;28;20258;-67
2024/01/22 02:29:56;;;;;;;3.10;2.63;;;;;;;-6.36;100.00;-22702.63;5030802;28;20187;-67
2024/01/22 02:32:21;;;;;;;2.27;2.17;;;;;;;-6.40;100.00;-22701.41;5030517;28;20662;-62
2024/01/22 02:34:47;;;;;;;2.07;1.97;;;;;;;-6.42;100.00;-22701.00;5030603;28;20681;-65
2024/01/22 02:37:14;;;;;;;2.73;2.57;;;;;;;-6.76;100.00;-22691.84;5030365;28;20278;-66
2024/01/22 02:39:39;;;;;;;1.60;1.50;;;;;;;-6.63;100.00;-22695.13;5030205;28;20217;-65
2024/01/22 02:42:05;;;;;;;3.03;2.67;;;;;;;-6.50;100.00;-22388.84;5028592;28;20662;-63
2024/01/22 02:44:32;;;;;;;2.27;2.17;;;;;;;-6.57;100.00;-22386.97;5030525;28;20185;-66
2024/01/22 02:46:57;;;;;;;3.63;3.30;;;;;;;-6.56;100.00;-22387.22;5030550;28;20169;-66
2024/01/22 02:49:23;;;;;;;1.97;1.87;;;;;;;-6.50;100.00;-21768.81;5030519;28;20634;-65
2024/01/22 02:51:48;;;;;;;1.80;1.70;;;;;;;-6.77;100.00;-21761.88;5030417;28;20767;-63
2024/01/22 02:54:13;;;;;;;1.70;1.60;;;;;;;-6.59;100.00;-21766.38;5030108;28;20178;-65
2024/01/22 02:56:39;;;;;;;2.17;2.00;;;;;;;-7.12;100.00;-22062.69;5029921;28;20179;-61
2024/01/22 02:59:06;;;;;;;1.80;1.70;;;;;;;-6.46;100.00;-22389.91;5032119;28;20198;-67
2024/01/22 03:01:31;;;;;;;1.80;1.70;;;;;;;-6.35;100.00;-21462.44;5035231;28;20690;-67
2024/01/22 03:03:57;;;;;;;1.60;1.50;;;;;;;-6.53;100.00;-21768.06;5033732;28;20253;-69
2024/01/22 03:06:23;;;;;;;1.60;1.50;;;;;;;-6.62;100.00;-21765.72;5033721;28;20235;-64
2024/01/22 03:08:48;;;;;;;1.60;1.50;;;;;;;-6.61;100.00;-21766.00;5032647;28;20256;-69
2024/01/22 03:11:13;;;;;;;2.53;2.33;;;;;;;-6.89;100.00;-21449.03;5033845;28;20190;-66
2024/01/22 03:13:39;;;;;;;1.67;1.57;;;;;;;-6.93;100.00;-21757.75;5031048;28;20578;-68
2024/01/22 03:16:05;;;;;;;1.60;1.50;;;;;;;-6.75;100.00;-21762.38;5033628;28;20162;-67
2024/01/22 03:18:30;;;;;;;1.60;1.50;;;;;;;-6.92;100.00;-21758.13;5032723;28;20280;-66
2024/01/22 03:20:56;;;;;;;1.93;1.83;;;;;;;-7.16;100.00;-21752.06;5032791;28;20203;-63
2024/01/22 03:23:21;;;;;;;1.80;1.70;;;;;;;-6.82;100.00;-21760.72;5033184;28;20302;-63
2024/01/22 03:25:47;;;;;;;1.60;1.50;;;;;;;-7.24;100.00;-21750.00;5032815;28;20254;-65
2024/01/22 03:28:12;;;;;;;1.70;1.60;;;;;;;-6.97;100.00;-21756.84;5033120;28;20200;-69
2024/01/22 03:30:37;;;;;;;1.77;1.67;;;;;;;-7.28;100.00;-21439.19;5032874;28;20671;-68
2024/01/22 03:33:03;;;;;;;1.80;1.70;;;;;;;-7.03;100.00;-21135.69;5032860;28;20231;-67
2024/01/22 03:35:28;;;;;;;2.10;2.00;;;;;;;-6.94;100.00;-20827.91;5032916;28;20177;-66
2024/01/22 03:37:54;;;;;;;2.27;2.07;;;;;;;-7.27;100.00;-21129.88;5033167;28;20221;-65
2024/01/22 03:40:19;;;;;;;3.23;2.20;;;;;;;-7.39;100.00;-20817.25;5032774;28;20173;-64
2024/01/22 03:42:44;;;;;;;2.30;2.20;;;;;;;-7.20;100.00;-20821.84;5032815;28;20203;-66
2024/01/22 03:45:10;;;;;;;2.00;1.90;;;;;;;-7.33;100.00;-21128.25;5032769;28;20642;-66
2024/01/22 03:47:35;;;;;;;2.00;1.90;;;;;;;-7.36;100.00;-21127.66;5030939;28;20181;-65
2024/01/22 03:50:03;;;;;;;2.03;1.93;;;;;;;-7.24;100.00;-20820.75;5030761;28;20184;-65
2024/01/22 03:52:28;;;;;;;2.27;2.17;;;;;;;-7.57;100.00;-20812.88;5029650;28;20189;-68
2024/01/22 03:54:54;;;;;;;1.87;1.77;;;;;;;-7.70;100.00;-20809.84;5030428;28;20553;-66
2024/01/22 03:57:19;;;;;;;2.03;1.93;;;;;;;-7.68;100.00;-20810.31;5030525;28;20183;-66
2024/01/22 03:59:46;;;;;;;1.70;1.60;;;;;;;-7.42;100.00;-20816.41;5031036;28;20592;-66
2024/01/22 04:02:12;;;;;;;3.47;2.07;;;;;;;-7.76;100.00;-20808.38;5032229;28;20208;-69
2024/01/22 04:04:37;;;;;;;1.93;1.83;;;;;;;-7.47;100.00;-20815.19;5032960;28;20190;-67
2024/01/22 04:07:03;;;;;;;1.97;1.87;;;;;;;-7.64;100.00;-20811.19;5032804;28;20595;-65
2024/01/22 04:09:28;;;;;;;1.70;1.60;;;;;;;-7.46;100.00;-20815.41;5035315;28;20370;-67
2024/01/22 04:11:53;;;;;;;2.47;2.33;;;;;;;-7.73;100.00;-20809.00;5032422;28;20186;-65
2024/01/22 04:14:19;;;;;;;2.30;2.20;;;;;;;-7.37;100.00;-20817.72;5032607;28;20268;-64
2024/01/22 04:16:44;;;;;;;1.50;1.40;;;;;;;-7.67;100.00;-20810.44;5032846;28;20176;-68
2024/01/22 04:19:10;;;;;;;1.80;1.70;;;;;;;-7.64;100.00;-20811.28;5032345;28;20630;-66
2024/01/22 04:21:44;;;;;;;1.60;1.50;;;;;;;-7.65;100.00;-20810.94;5032385;28;20202;-65
2024/01/22 04:24:09;;;;;;;2.87;2.67;;;;;;;-7.44;100.00;-20506.38;5032096;28;20272;-66
2024/01/22 04:26:35;;;;;;;1.70;1.60;;;;;;;-7.36;100.00;-20198.53;5032542;28;20211;-66
2024/01/22 04:29:00;;;;;;;2.73;2.53;;;;;;;-7.39;100.00;-20197.84;5032417;28;20199;-65
2024/01/22 04:31:25;;;;;;;1.53;1.43;;;;;;;-7.33;100.00;-20508.97;5032275;28;20360;-66
2024/01/22 04:33:51;;;;;;;1.80;1.70;;;;;;;-7.22;100.00;-20201.78;5032467;28;20258;-68
2024/01/22 04:36:16;;;;;;;2.27;2.07;;;;;;;-7.56;100.00;-19884.13;5032090;28;20587;-68
2024/01/22 04:38:42;;;;;;;2.53;2.33;;;;;;;-7.66;100.00;-20191.56;5032028;28;20172;-67
2024/01/22 04:41:07;;;;;;;1.60;1.50;;;;;;;-7.55;100.00;-20503.75;5032093;28;20562;-68
2024/01/22 04:43:33;;;;;;;1.63;1.53;;;;;;;-7.74;100.00;-20499.34;5032092;28;20183;-68
2024/01/22 04:45:58;;;;;;;1.70;1.60;;;;;;;-7.69;100.00;-20500.53;5031755;28;20253;-67
2024/01/22 04:48:24;;;;;;;2.03;1.93;;;;;;;-7.64;100.00;-20501.72;5031828;28;20176;-68
2024/01/22 04:50:49;;;;;;;1.73;1.63;;;;;;;-7.44;100.00;-20506.25;5031726;28;20642;-66
2024/01/22 04:53:15;;;;;;;1.70;1.60;;;;;;;-7.49;100.00;-20505.06;5031385;28;20223;-65
2024/01/22 04:55:40;;;;;;;1.60;1.50;;;;;;;-7.70;100.00;-20500.19;5031734;28;20230;-69
2024/01/22 04:58:06;;;;;;;2.23;2.13;;;;;;;-7.44;100.00;-20506.25;5032103;28;20587;-67
2024/01/22 05:00:32;;;;;;;1.70;1.60;;;;;;;-7.68;100.00;-20500.78;5030777;28;20237;-66
2024/01/22 05:02:57;;;;;;;1.50;1.40;;;;;;;-7.55;100.00;-20503.75;5031611;28;20184;-68
2024/01/22 05:05:22;;;;;;;2.20;2.10;;;;;;;-7.39;100.00;-20507.56;5031141;28;20203;-66
2024/01/22 05:07:48;;;;;;;1.67;1.57;;;;;;;-7.76;100.00;-20189.34;5031221;28;20211;-67
2024/01/22 05:10:14;;;;;;;2.00;1.90;;;;;;;-7.59;100.00;-20193.19;5030979;28;20568;-69
2024/01/22 05:12:40;;;;;;;1.47;1.37;;;;;;;-7.51;100.00;-20195.03;5046688;28;20182;-68
2024/01/22 05:15:06;;;;;;;2.20;2.00;;;;;;;-7.95;100.00;-20494.25;5031440;28;20608;-68
2024/01/22 05:17:32;;;;;;;1.70;1.60;;;;;;;-7.60;100.00;-20502.69;5034506;28;20160;-67
2024/01/22 05:19:58;;;;;;;1.63;1.53;;;;;;;-7.94;100.00;-20494.47;5031290;28;20626;-67
2024/01/22 05:22:24;;;;;;;1.63;1.53;;;;;;;-7.94;100.00;-20803.88;5030449;28;20191;-67
2024/01/22 05:24:49;;;;;;;1.73;1.63;;;;;;;-7.68;100.00;-20810.31;5030984;28;20172;-65
2024/01/22 05:27:15;;;;;;;1.73;1.63;;;;;;;-7.53;100.00;-20813.72;5031222;28;20670;-68
2024/01/22 05:29:40;;;;;;;1.60;1.50;;;;;;;-7.39;100.00;-20507.56;5031180;28;20665;-70
2024/01/22 05:32:06;;;;;;;2.80;2.27;;;;;;;-7.49;100.00;-20505.06;5031077;28;20229;-68
2024/01/22 05:34:32;;;;;;;2.13;2.03;;;;;;;-7.46;100.00;-20815.53;5031052;28;20223;-71
2024/01/22 05:36:57;;;;;;;1.77;1.67;;;;;;;-7.64;100.00;-20811.19;5030891;28;20175;-67
2024/01/22 05:39:22;;;;;;;1.50;1.40;;;;;;;-7.71;100.00;-20809.47;5030917;28;20203;-67
2024/01/22 05:41:48;;;;;;;4.10;3.10;;;;;;;-7.73;100.00;-20809.00;5030652;28;20199;-65
2024/01/22 05:44:13;;;;;;;1.63;1.53;;;;;;;-7.43;100.00;-21125.78;5031102;28;20169;-68
2024/01/22 05:46:39;;;;;;;1.70;1.60;;;;;;;-7.35;100.00;-20508.38;5030964;28;20605;-66
2024/01/22 05:49:04;;;;;;;1.70;1.60;;;;;;;-7.23;100.00;-20201.44;5029249;28;20278;-65
2024/01/22 05:51:30;;;;;;;1.67;1.57;;;;;;;-7.27;100.00;-19890.81;5030164;28;20647;-66
2024/01/22 05:53:55;;;;;;;1.60;1.50;;;;;;;-7.28;100.00;-20200.38;5030270;28;20271;-69
2024/01/22 05:56:22;;;;;;;2.30;2.20;;;;;;;-7.30;100.00;-20509.56;5030694;28;20223;-72
2024/01/22 05:58:48;;;;;;;3.77;2.73;;;;;;;-7.22;100.00;-20821.25;5030790;28;20172;-68
2024/01/22 06:01:25;;;;;;;1.60;1.50;;;;;;;-7.20;100.00;-20821.72;5030582;28;20279;-69
2024/01/22 06:03:51;;;;;;;1.80;1.70;;;;;;;-7.09;100.00;-20824.28;5030846;28;20175;-65
2024/01/22 06:06:17;;;;;;;2.03;1.93;;;;;;;-7.12;100.00;-20823.56;5030654;28;20606;-69
2024/01/22 06:08:44;;;;;;;1.70;1.60;;;;;;;-7.04;100.00;-20515.63;5030605;28;20189;-64
2024/01/22 06:11:13;;;;;;;2.43;2.30;;;;;;;-7.10;100.00;-20204.44;5028765;28;20557;-65
2024/01/22 06:13:39;;;;;;;1.80;1.70;;;;;;;-6.90;100.00;-19899.00;5027447;28;20199;-66
2024/01/22 06:16:07;;;;;;;1.60;1.50;;;;;;;-6.87;100.00;-19279.66;5028742;28;20212;-63
2024/01/22 06:18:32;;;;;;;1.60;1.50;;;;;;;-6.95;100.00;-19277.81;5029547;28;20611;-68
2024/01/22 06:20:58;;;;;;;2.20;2.10;;;;;;;-7.19;100.00;-19892.63;5029708;28;20227;-68
2024/01/22 06:23:23;;;;;;;1.70;1.60;;;;;;;-7.06;100.00;-19275.56;5029856;28;20171;-68
2024/01/22 06:25:48;;;;;;;2.07;1.97;;;;;;;-7.15;100.00;-19893.53;5032693;28;20183;-69
2024/01/22 06:28:14;;;;;;;1.53;1.43;;;;;;;-6.77;100.00;-19281.72;5029725;28;20258;-67
2024/01/22 06:30:39;;;;;;;1.60;1.50;;;;;;;-6.90;100.00;-18658.72;5030057;28;20665;-67
2024/01/22 06:33:04;;;;;;;1.70;1.60;;;;;;;-6.68;100.00;-18663.25;5029973;28;20258;-67
2024/01/22 06:35:30;;;;;;;1.60;1.50;;;;;;;-6.83;100.00;-19280.41;5032778;28;20210;-65
2024/01/22 06:37:55;;;;;;;2.10;2.00;;;;;;;-6.25;100.00;-18361.53;5033121;28;20614;-68
2024/01/22 06:40:21;;;;;;;1.67;1.57;;;;;;;-6.44;100.00;-17736.88;5033915;28;20269;-70
2024/01/22 06:42:46;;;;;;;2.93;2.73;;;;;;;-6.61;100.00;-18354.41;5033951;28;20746;-67
2024/01/22 06:45:11;;;;;;;1.63;1.53;;;;;;;-6.56;100.00;-18665.72;5034210;28;20196;-67
2024/01/22 06:47:37;;;;;;;2.00;1.90;;;;;;;-6.42;100.00;-16805.81;5033844;28;20177;-69
2024/01/22 06:50:03;;;;;;;5.20;3.37;;;;;;;-6.42;100.00;-16805.81;5033544;28;20581;-67
2024/01/22 06:52:29;;;;;;;2.33;2.17;;;;;;;-6.51;100.00;-18046.03;5034049;28;20218;-68
2024/01/22 06:54:56;;;;;;;1.77;1.67;;;;;;;-6.10;100.00;-18053.88;5033663;28;20203;-68
2024/01/22 06:57:21;;;;;;;1.63;1.53;;;;;;;-6.13;100.00;-18674.38;5032617;28;20613;-70
2024/01/22 06:59:46;;;;;;;2.63;2.43;;;;;;;-6.03;100.00;-19297.53;5033678;28;20210;-67
2024/01/22 07:02:12;;;;;;;1.60;1.50;;;;;;;-6.09;100.00;-18985.72;5033450;28;20678;-69
2024/01/22 07:04:37;;;;;;;2.50;2.40;;;;;;;-5.94;100.00;-18678.28;5033419;28;20697;-68
2024/01/22 07:07:03;;;;;;;1.80;1.70;;;;;;;-5.64;100.00;-19927.22;5033395;28;20185;-64
2024/01/22 07:09:29;;;;;;;2.10;1.90;;;;;;;-5.85;100.00;-20233.22;5032078;28;20186;-66
2024/01/22 07:11:54;;;;;;;2.43;2.27;;;;;;;-5.47;100.00;-18687.84;5033385;28;20278;-70
2024/01/22 07:14:20;;;;;;;1.93;1.83;;;;;;;-5.31;100.00;-17758.19;5032839;28;20557;-68
2024/01/22 07:16:45;;;;;;;1.97;1.77;;;;;;;-5.29;100.00;-18380.50;5032815;28;20611;-68
2024/01/22 07:19:11;;;;;;;1.77;1.67;;;;;;;-5.57;100.00;-18375.06;5032673;28;20233;-66
2024/01/22 07:21:36;;;;;;;1.70;1.60;;;;;;;-5.45;100.00;-18066.56;5033300;28;20683;-69
2024/01/22 07:24:01;;;;;;;1.83;1.73;;;;;;;-5.37;100.00;-18068.13;5033224;28;20180;-67
2024/01/22 07:26:27;;;;;;;1.73;1.63;;;;;;;-4.97;100.00;-18698.13;5033154;28;20179;-68
2024/01/22 07:28:52;;;;;;;1.40;1.30;;;;;;;-5.27;100.00;-19624.63;5033408;28;20175;-68
2024/01/22 07:31:18;;;;;;;1.70;1.60;;;;;;;-5.10;100.00;-19939.31;5032877;28;20278;-67
2024/01/22 07:33:43;;;;;;;1.90;1.80;;;;;;;-5.02;100.00;-19319.25;5034870;28;20269;-65
2024/01/22 07:36:08;;;;;;;2.10;2.00;;;;;;;-4.75;100.00;-19013.78;5032463;28;20259;-67
2024/01/22 07:38:34;;;;;;;2.47;2.27;;;;;;;-4.25;100.00;-19335.53;5032576;28;20660;-67
2024/01/22 07:40:59;;;;;;;1.70;1.60;;;;;;;-4.13;100.00;-19338.22;5032207;28;20203;-69
2024/01/22 07:43:26;;;;;;;2.53;2.33;;;;;;;-4.09;100.00;-18716.00;5032676;28;20212;-68
2024/01/22 07:45:51;;;;;;;1.63;1.53;;;;;;;-4.38;100.00;-19332.72;5031259;28;20544;-66
2024/01/22 07:48:17;;;;;;;5.03;2.23;;;;;;;-3.91;100.00;-20277.41;5032536;28;20181;-67
2024/01/22 07:50:43;;;;;;;1.90;1.80;;;;;;;-3.69;100.00;-19347.59;5032442;28;20650;-68
2024/01/22 07:53:08;;;;;;;1.50;1.40;;;;;;;-3.86;100.00;-17161.72;5033125;28;20682;-67
2024/01/22 07:55:34;;;;;;;1.90;1.80;;;;;;;-3.51;100.00;-17168.00;5032813;28;20266;-66
2024/01/22 07:57:59;;;;;;;4.80;2.37;;;;;;;-3.45;100.00;-16856.94;5032733;28;20182;-67
2024/01/22 08:00:26;;;;;;;1.57;1.47;;;;;;;-3.36;100.00;-15297.53;5032583;28;20197;-67
2024/01/22 08:02:51;;;;;;;2.33;2.23;;;;;;;-3.57;100.00;-16542.91;5032113;28;20225;-67
2024/01/22 08:05:17;;;;;;;1.60;1.50;;;;;;;-3.53;100.00;-17167.63;5032425;28;20198;-68
2024/01/22 08:07:43;;;;;;;4.30;2.30;;;;;;;-3.46;100.00;-15296.03;5032317;28;20174;-69
2024/01/22 08:10:09;;;;;;;1.50;1.40;;;;;;;-3.02;100.00;-11863.78;5031817;28;20607;-67
2024/01/22 08:12:35;;;;;;;2.83;2.23;;;;;;;-3.31;100.00;-10297.69;5032230;28;20673;-66
2024/01/22 08:15:00;;;;;;;1.90;1.80;;;;;;;-3.37;100.00;-10297.31;5031968;28;20178;-66
2024/01/22 08:17:25;;;;;;;2.33;2.13;;;;;;;-3.42;100.00;-7794.28;5031422;28;20606;-67
2024/01/22 08:19:51;;;;;;;3.43;1.70;;;;;;;-3.35;100.00;-9359.03;5032133;28;20252;-65
2024/01/22 08:22:16;;;;;;;1.20;1.20;;;;;;;-3.51;100.00;-9983.75;5032237;28;20561;-67
2024/01/22 08:24:42;;;;;;;1.57;1.47;;;;;;;-3.33;100.00;-10923.06;5031775;28;20266;-68
2024/01/22 08:27:07;;;;;;;1.70;1.60;;;;;;;-2.83;100.00;-11239.69;5032744;28;20541;-68
2024/01/22 08:29:33;;;;;;;1.50;1.40;;;;;;;-2.81;100.00;-11865.69;5030611;28;20214;-67
2024/01/22 08:31:58;;;;;;;2.10;2.00;;;;;;;-2.75;100.00;-12179.16;5031522;28;20178;-66
2024/01/22 08:34:24;;;;;;;1.80;1.70;;;;;;;-2.81;100.00;-10300.91;5031669;28;20226;-65
2024/01/22 08:36:49;;;;;;;1.60;1.50;;;;;;;-2.53;100.00;-9989.47;5031731;28;20393;-67
2024/01/22 08:39:15;;;;;;;8.17;3.30;;;;;;;-2.55;100.00;-9676.16;5031550;28;20237;-68
2024/01/22 08:41:41;;;;;;;1.53;1.47;;;;;;;-2.79;100.00;-11240.06;5035404;28;20198;-66
2024/01/22 08:44:06;;;;;;;2.00;1.53;;;;;;;-2.43;100.00;-8736.78;5031567;28;20182;-68
2024/01/22 08:46:33;;;;;;;2.13;2.03;;;;;;;-2.20;100.00;-9678.00;5031074;28;20217;-69
2024/01/22 08:48:58;;;;;;;1.40;1.30;;;;;;;-2.28;100.00;-9050.81;5031900;28;20167;-68
2024/01/22 08:51:24;;;;;;;1.50;1.40;;;;;;;-2.00;100.00;-9679.06;5031621;28;20186;-63
2024/01/22 08:53:50;;;;;;;2.10;2.00;;;;;;;-2.03;100.00;-8738.28;5031245;28;20184;-68
2024/01/22 08:56:15;;;;;;;2.53;2.33;;;;;;;-1.87;100.00;-8111.50;5031114;28;20168;-67
2024/01/22 08:58:41;;;;;;;1.23;1.23;;;;;;;-1.94;100.00;-9992.94;5031091;28;20206;-67
2024/01/22 09:01:07;;;;;;;1.77;1.67;;;;;;;-1.71;100.00;-12502.34;5031150;28;20203;-67
2024/01/22 09:03:33;;;;;;;1.30;1.30;;;;;;;-1.67;100.00;-9053.41;5031352;28;20625;-67
2024/01/22 09:05:59;;;;;;;2.43;2.10;;;;;;;-1.22;100.00;-6228.31;5031312;28;20283;-66
2024/01/22 09:08:25;;;;;;;1.40;1.30;;;;;;;-1.50;100.00;-4657.53;5031746;28;20184;-68
2024/01/22 09:10:51;;;;;;;1.13;1.13;;;;;;;-1.47;100.00;-3400.13;5032128;28;20198;-66
2024/01/22 09:13:16;;;;;;;1.60;1.50;;;;;;;-1.07;100.00;1009.19;5031306;28;20640;-67
2024/01/22 09:15:41;;;;;;;1.33;1.33;;;;;;;-1.62;100.00;13931.78;5030065;28;20187;-67
2024/01/22 09:18:07;;;;;;;1.80;1.53;;;;;;;-1.50;100.00;11408.72;5030826;28;20191;-66
2024/01/22 09:20:32;;;;;;;2.10;1.67;;;;;;;-1.37;100.00;14256.59;5031230;28;20167;-66
2024/01/22 09:22:58;;;;;;;1.50;1.40;;;;;;;-1.26;100.00;11731.69;5029967;28;20208;-66
2024/01/22 09:25:23;;;;;;;1.63;1.53;;;;;;;-1.26;100.00;12047.63;5029508;28;20280;-66
2024/01/22 09:27:49;;;;;;;1.30;1.27;;;;;;;-1.06;100.00;8894.34;5029527;28;20176;-67
2024/01/22 09:30:15;;;;;;;2.00;1.90;;;;;;;-0.96;100.00;7002.59;5029431;28;20176;-67
2024/01/22 09:32:40;;;;;;;2.23;2.10;;;;;;;-0.59;100.00;7642.56;5029880;28;20708;-69
2024/01/22 09:35:06;;;;;;;2.10;1.97;;;;;;;-0.54;100.00;8275.53;5030249;28;20230;-64
2024/01/22 09:37:32;;;;;;;1.77;1.67;;;;;;;-0.61;100.00;10486.22;5030150;28;20265;-67
2024/01/22 09:39:57;;;;;;;1.77;1.67;;;;;;;-0.31;100.00;12709.75;5031192;28;20171;-67
2024/01/22 09:42:26;;;;;;;1.50;1.40;;;;;;;-0.38;100.00;19043.34;5031003;28;20362;-65
2024/01/22 09:44:53;;;;;;;1.53;1.40;;;;;;;-0.54;100.00;19670.84;5031132;28;20281;-68
2024/01/22 09:47:20;;;;;;;1.23;1.23;;;;;;;-0.49;100.00;18088.06;5034647;28;20187;-67
2024/01/22 09:49:49;;;;;;;2.07;1.97;;;;;;;-0.31;100.00;15243.00;5031327;28;20268;-68
2024/01/22 09:52:16;;;;;;;1.77;1.67;;;;;;;-0.35;100.00;12391.81;5031156;28;20257;-65
2024/01/22 09:54:42;;;;;;;2.03;1.93;;;;;;;0.05;100.00;9238.88;5030912;28;20563;-68
2024/01/22 09:57:23;;;;;;;1.67;1.57;;;;;;;0.05;100.00;7341.09;5031195;28;20241;-68
2024/01/22 09:59:51;;;;;;;1.63;1.53;;;;;;;0.05;100.00;7657.31;5030743;28;20261;-69
2024/01/22 10:02:17;;;;;;;1.70;1.47;;;;;;;-0.27;100.00;8282.19;5031028;28;20222;-64
2024/01/22 10:04:44;;;;;;;1.87;1.77;;;;;;;-0.27;100.00;13977.50;5030859;28;20176;-67
2024/01/22 10:07:13;;;;;;;1.10;1.10;;;;;;;0.13;100.00;14941.81;5030788;28;20669;-66
2024/01/22 10:09:38;;;;;;;1.07;1.07;;;;;;;0.12;100.00;24464.34;5030105;28;20167;-68
2024/01/22 10:12:05;;;;;;;1.73;1.63;;;;;;;0.57;100.00;35321.13;5030308;28;20186;-67
2024/01/22 10:14:31;;;;;;;1.50;1.40;;;;;;;0.20;100.00;42032.53;5030892;28;20176;-68
2024/01/22 10:17:13;;;;;;;1.63;1.53;;;;;;;0.33;100.00;37857.91;5030781;28;20252;-69
2024/01/22 10:19:38;;;;;;;2.03;1.77;;;;;;;0.49;100.00;28302.41;5030690;28;20166;-69
2024/01/22 10:22:04;;;;;;;1.17;1.17;;;;;;;0.49;100.00;28939.34;5030307;28;20653;-67
2024/01/22 10:24:30;;;;;;;1.93;1.83;;;;;;;0.47;100.00;25118.16;5030369;28;20184;-68
2024/01/22 10:27:11;;;;;;;1.40;1.33;;;;;;;0.34;100.00;23521.63;5030595;28;20224;-69
2024/01/22 10:29:37;;;;;;;1.83;1.73;;;;;;;0.54;100.00;26713.34;5030395;28;20218;-66
2024/01/22 10:32:02;;;;;;;2.63;2.40;;;;;;;0.58;100.00;37556.34;5031220;28;20183;-64
2024/01/22 10:34:30;;;;;;;1.50;1.40;;;;;;;0.70;100.00;46721.97;5030804;28;20705;-65
2024/01/22 10:37:08;;;;;;;4.40;1.83;;;;;;;0.88;100.00;43522.56;5030712;28;20213;-67
2024/01/22 10:39:35;;;;;;;1.53;1.43;;;;;;;0.63;100.00;29265.94;5031077;28;20186;-65
2024/01/22 10:42:18;;;;;;;2.23;1.87;;;;;;;0.74;100.00;18138.00;5030387;28;20352;-66
2024/01/22 10:44:46;;;;;;;1.30;1.30;;;;;;;1.04;100.00;15926.56;5030834;28;20187;-67
2024/01/22 10:47:12;;;;;;;4.63;1.77;;;;;;;0.82;100.00;13697.22;5030754;28;20234;-65
2024/01/22 10:49:38;;;;;;;1.83;1.73;;;;;;;0.90;100.00;12748.13;5030277;28;20273;-70
2024/01/22 10:52:04;;;;;;;2.40;2.10;;;;;;;1.06;100.00;12753.09;5033904;28;20588;-69
2024/01/22 10:54:31;;;;;;;3.30;2.27;;;;;;;1.08;100.00;10533.66;5030921;28;20651;-70
2024/01/22 10:57:13;;;;;;;1.73;1.63;;;;;;;0.73;100.00;14962.94;5030682;28;20183;-66
2024/01/22 10:59:39;;;;;;;2.47;1.80;;;;;;;1.11;100.00;19424.28;5030268;28;20159;-66
2024/01/22 11:02:15;;;;;;;1.70;1.60;;;;;;;1.02;100.00;31202.41;5030053;28;20727;-64
2024/01/22 11:04:44;;;;;;;1.23;1.23;;;;;;;0.76;100.00;33100.03;5030783;28;20289;-67
2024/01/22 11:07:11;;;;;;;1.60;1.50;;;;;;;0.98;100.00;34391.16;5030290;28;20175;-68
2024/01/22 11:09:38;;;;;;;1.10;1.10;;;;;;;1.00;100.00;35670.28;5030265;28;20175;-68
2024/01/22 11:12:09;;;;;;;2.13;1.93;;;;;;;1.08;100.00;39821.47;5030468;28;20179;-67
2024/01/22 11:14:36;;;;;;;1.50;1.40;;;;;;;1.08;100.00;43776.56;5029910;28;20171;-65